X  CloseMetar Aviation Weather Data     EKSB Sønderborg

Temperature

6°C Temperature

5°C Dewpoint

93% Humidity



Wind

11 KM/H

 7 MPH

 3 M/S

 6 KTS



40°
North East
Current Conditions

Mist Mist
Pressure 1012.92 (hPa) - 29.91 (in)
Visibility 2.5 (mi) - 4 (km)
Airport
Airport-code EKSB

Location Sønderborg 40 (km)

Metar:
EKSB 211120Z 04006KT 4000 BR BKN004 06/05 Q1013

Time: 21-11-2019 12:20